Time,TemperatureF,DewpointF,PressureIn,WindDirection,WindDirectionDegrees,WindSpeedMPH,WindSpeedGustMPH,Humidity,HourlyPrecipIn,Conditions,Clouds,dailyrainin,SolarRadiationWatts/m^2,SoftwareType,DateUTC
2013-12-02 00:02:00,32.0,29.0,30.35,East,79,1.0,6.0,89,0.00,,,0.00,0.000000,,2013-12-02 05:02:00,
2013-12-02 00:43:00,33.0,30.0,30.33,North,359,2.0,3.0,87,0.00,,,0.00,0.000000,,2013-12-02 05:43:00,
2013-12-02 00:53:00,33.0,30.0,30.33,North,359,2.0,3.0,87,0.00,,,0.00,0.000000,,2013-12-02 05:53:00,
2013-12-02 01:02:00,33.0,30.0,30.33,North,359,2.0,3.0,87,0.00,,,0.00,0.000000,,2013-12-02 06:02:00,
2013-12-02 01:42:00,33.0,30.0,30.31,SSW,206,1.0,4.0,89,0.00,,,0.00,0.000000,,2013-12-02 06:42:00,
2013-12-02 01:52:00,33.0,30.0,30.31,SSW,206,1.0,4.0,89,0.00,,,0.00,0.000000,,2013-12-02 06:52:00,
2013-12-02 02:01:00,33.0,30.0,30.31,SSW,206,1.0,4.0,89,0.00,,,0.00,0.000000,,2013-12-02 07:01:00,
2013-12-02 02:42:00,33.0,31.0,30.30,SE,136,1.0,4.0,91,0.00,,,0.00,0.000000,,2013-12-02 07:42:00,
2013-12-02 02:52:00,33.0,31.0,30.30,SE,136,1.0,4.0,91,0.00,,,0.00,0.000000,,2013-12-02 07:52:00,
2013-12-02 03:01:00,33.0,31.0,30.30,SE,136,1.0,4.0,91,0.00,,,0.00,0.000000,,2013-12-02 08:01:00,
2013-12-02 03:42:00,34.0,32.0,30.27,ENE,65,2.0,6.0,91,0.00,,,0.00,0.000000,,2013-12-02 08:42:00,
2013-12-02 03:52:00,34.0,32.0,30.27,ENE,65,2.0,6.0,91,0.00,,,0.00,0.000000,,2013-12-02 08:52:00,
2013-12-02 04:02:00,34.0,32.0,30.27,ENE,65,2.0,6.0,91,0.00,,,0.00,0.000000,,2013-12-02 09:02:00,
2013-12-02 04:43:00,33.0,31.0,30.27,South,175,1.0,6.0,93,0.00,,,0.00,0.000000,,2013-12-02 09:43:00,
2013-12-02 04:54:00,33.0,31.0,30.27,South,175,1.0,6.0,93,0.00,,,0.00,0.000000,,2013-12-02 09:54:00,
2013-12-02 05:03:00,33.0,31.0,30.27,South,175,1.0,6.0,93,0.00,,,0.00,0.000000,,2013-12-02 10:03:00,
2013-12-02 05:42:00,34.0,32.0,30.25,ESE,115,2.0,4.0,91,0.00,,,0.00,0.000000,,2013-12-02 10:42:00,
2013-12-02 05:52:00,34.0,32.0,30.25,ESE,115,2.0,4.0,91,0.00,,,0.00,0.000000,,2013-12-02 10:52:00,
2013-12-02 06:03:00,34.0,32.0,30.25,ESE,115,2.0,4.0,91,0.00,,,0.00,0.000000,,2013-12-02 11:03:00,
2013-12-02 06:42:00,34.0,32.0,30.25,NE,35,2.0,7.0,92,0.00,,,0.00,0.000000,,2013-12-02 11:42:00,
2013-12-02 06:53:00,34.0,32.0,30.25,NE,35,2.0,7.0,92,0.00,,,0.00,0.000000,,2013-12-02 11:53:00,
2013-12-02 07:03:00,34.0,32.0,30.25,NE,35,2.0,7.0,92,0.00,,,0.00,0.000000,,2013-12-02 12:03:00,
2013-12-02 07:42:00,33.0,31.0,30.25,NW,308,1.0,4.0,93,0.00,,,0.00,0.000000,,2013-12-02 12:42:00,
2013-12-02 07:52:00,33.0,31.0,30.25,NW,308,1.0,4.0,93,0.00,,,0.00,0.000000,,2013-12-02 12:52:00,
2013-12-02 08:02:00,33.0,31.0,30.25,NW,308,1.0,4.0,93,0.00,,,0.00,0.000000,,2013-12-02 13:02:00,
2013-12-02 08:42:00,34.0,33.0,30.25,ENE,70,1.0,4.0,95,0.00,,,-99.99,5.000000,,2013-12-02 13:42:00,
2013-12-02 08:52:00,34.0,33.0,30.25,ENE,70,1.0,4.0,95,0.00,,,-99.99,5.000000,,2013-12-02 13:52:00,
2013-12-02 09:02:00,34.0,33.0,30.25,ENE,70,1.0,4.0,95,0.00,,,-99.99,5.000000,,2013-12-02 14:02:00,
2013-12-02 09:43:00,38.0,34.0,30.24,West,281,1.0,4.0,86,0.00,,,0.00,54.000000,,2013-12-02 14:43:00,
2013-12-02 09:52:00,38.0,34.0,30.24,West,281,1.0,4.0,86,0.00,,,0.00,54.000000,,2013-12-02 14:52:00,
2013-12-02 10:02:00,38.0,34.0,30.24,West,281,1.0,4.0,86,0.00,,,0.00,54.000000,,2013-12-02 15:02:00,
2013-12-02 10:43:00,41.0,34.0,30.24,West,264,1.0,4.0,76,0.00,,,0.00,130.000000,,2013-12-02 15:43:00,
2013-12-02 10:54:00,41.0,34.0,30.24,West,264,1.0,4.0,76,0.00,,,0.00,130.000000,,2013-12-02 15:54:00,
2013-12-02 11:03:00,41.0,34.0,30.24,West,264,1.0,4.0,76,0.00,,,0.00,130.000000,,2013-12-02 16:03:00,
2013-12-02 11:43:00,44.0,35.0,30.23,SW,221,1.0,4.0,70,0.00,,,0.00,168.000000,,2013-12-02 16:43:00,
2013-12-02 11:53:00,44.0,35.0,30.23,SW,221,1.0,4.0,70,0.00,,,0.00,168.000000,,2013-12-02 16:53:00,
2013-12-02 12:02:00,44.0,35.0,30.23,SW,221,1.0,4.0,70,0.00,,,0.00,168.000000,,2013-12-02 17:02:00,
2013-12-02 12:42:00,50.0,34.0,30.18,South,181,1.0,5.0,55,0.00,,,0.00,238.000000,,2013-12-02 17:42:00,
2013-12-02 12:53:00,50.0,34.0,30.18,South,181,1.0,5.0,55,0.00,,,0.00,238.000000,,2013-12-02 17:53:00,
2013-12-02 13:02:00,50.0,34.0,30.18,South,181,1.0,5.0,55,0.00,,,0.00,238.000000,,2013-12-02 18:02:00,
2013-12-02 13:42:00,57.0,34.0,30.14,East,90,3.0,8.0,42,0.00,,,0.00,592.000000,,2013-12-02 18:42:00,
2013-12-02 13:53:00,57.0,34.0,30.14,East,90,3.0,8.0,42,0.00,,,0.00,592.000000,,2013-12-02 18:53:00,
2013-12-02 14:02:00,57.0,34.0,30.14,East,90,3.0,8.0,42,0.00,,,0.00,592.000000,,2013-12-02 19:02:00,
2013-12-02 14:42:00,56.0,37.0,30.12,South,173,3.0,8.0,48,0.00,,,0.00,463.000000,,2013-12-02 19:42:00,
2013-12-02 14:52:00,56.0,37.0,30.12,South,173,3.0,8.0,48,0.00,,,0.00,463.000000,,2013-12-02 19:52:00,
2013-12-02 15:02:00,56.0,37.0,30.12,South,173,3.0,8.0,48,0.00,,,0.00,463.000000,,2013-12-02 20:02:00,
2013-12-02 15:42:00,56.0,36.0,30.11,SW,233,1.0,5.0,47,0.00,,,0.00,171.000000,,2013-12-02 20:42:00,
2013-12-02 15:52:00,56.0,36.0,30.11,SW,233,1.0,5.0,47,0.00,,,0.00,171.000000,,2013-12-02 20:52:00,
2013-12-02 16:02:00,56.0,36.0,30.11,SW,233,1.0,5.0,47,0.00,,,0.00,171.000000,,2013-12-02 21:02:00,
2013-12-02 16:43:00,54.0,39.0,30.12,WNW,290,3.0,5.0,56,0.00,,,0.00,85.000000,,2013-12-02 21:43:00,
2013-12-02 16:53:00,54.0,39.0,30.12,WNW,290,3.0,5.0,56,0.00,,,0.00,85.000000,,2013-12-02 21:53:00,
2013-12-02 17:03:00,54.0,39.0,30.12,WNW,290,3.0,5.0,56,0.00,,,0.00,85.000000,,2013-12-02 22:03:00,
2013-12-02 17:43:00,49.0,37.0,30.12,NNW,340,1.0,7.0,63,0.00,,,0.00,37.000000,,2013-12-02 22:43:00,
2013-12-02 17:53:00,49.0,37.0,30.12,NNW,340,1.0,7.0,63,0.00,,,0.00,37.000000,,2013-12-02 22:53:00,
2013-12-02 18:02:00,49.0,37.0,30.12,NNW,340,1.0,7.0,63,0.00,,,0.00,37.000000,,2013-12-02 23:02:00,
2013-12-02 18:42:00,46.0,39.0,30.12,NW,313,1.0,3.0,77,0.00,,,0.00,1.000000,,2013-12-02 23:42:00,
2013-12-02 18:53:00,46.0,39.0,30.12,NW,313,1.0,3.0,77,0.00,,,0.00,1.000000,,2013-12-02 23:53:00,
2013-12-02 19:02:00,46.0,39.0,30.12,NW,313,1.0,3.0,77,0.00,,,0.00,1.000000,,2013-12-03 00:02:00,
2013-12-02 19:42:00,45.0,39.0,30.14,NE,46,1.0,2.0,80,0.00,,,0.00,0.000000,,2013-12-03 00:42:00,
2013-12-02 19:52:00,45.0,39.0,30.14,NE,46,1.0,2.0,80,0.00,,,0.00,0.000000,,2013-12-03 00:52:00,
2013-12-02 20:01:00,45.0,39.0,30.14,NE,46,1.0,2.0,80,0.00,,,0.00,0.000000,,2013-12-03 01:01:00,
2013-12-02 20:42:00,45.0,39.0,30.15,West,260,1.0,4.0,80,0.00,,,0.00,0.000000,,2013-12-03 01:42:00,
2013-12-02 20:52:00,45.0,39.0,30.15,West,260,1.0,4.0,80,0.00,,,0.00,0.000000,,2013-12-03 01:52:00,
2013-12-02 21:02:00,45.0,39.0,30.15,West,260,1.0,4.0,80,0.00,,,0.00,0.000000,,2013-12-03 02:02:00,
2013-12-02 21:42:00,43.0,38.0,30.15,East,81,1.0,3.0,82,0.00,,,0.00,0.000000,,2013-12-03 02:42:00,
2013-12-02 21:52:00,43.0,38.0,30.15,East,81,1.0,3.0,82,0.00,,,0.00,0.000000,,2013-12-03 02:52:00,
2013-12-02 22:02:00,43.0,38.0,30.15,East,81,1.0,3.0,82,0.00,,,0.00,0.000000,,2013-12-03 03:02:00,
2013-12-02 22:43:00,43.0,38.0,30.16,ENE,71,2.0,4.0,82,0.00,,,0.00,0.000000,,2013-12-03 03:43:00,
2013-12-02 22:54:00,43.0,38.0,30.16,ENE,71,2.0,4.0,82,0.00,,,0.00,0.000000,,2013-12-03 03:54:00,
2013-12-02 23:03:00,43.0,38.0,30.16,ENE,71,2.0,4.0,82,0.00,,,0.00,0.000000,,2013-12-03 04:03:00,
2013-12-02 23:43:00,42.0,38.0,30.17,NE,40,1.0,5.0,84,0.00,,,0.00,0.000000,,2013-12-03 04:43:00,
2013-12-02 23:52:00,42.0,38.0,30.17,NE,40,1.0,5.0,84,0.00,,,0.00,0.000000,,2013-12-03 04:52:00,